Terminal Aerodrome Forecast
Issued by NWS

Home | Current Version | Previous Version | Text Only | Print | Product List | Glossary On
Versions: 1 2 3 4 5 6 7 8 9 10 11 12 13 14 15 16 17 18 19 20 21
000
FTUS46 KSEW 230300 AAA
TAFOLM
TAF AMD
KOLM 230309Z 2303/2324 19015KT 6SM -SHRA BR SCT015 BKN030 BKN050
     FM230700 21011KT P6SM -SHRA SCT020 BKN040 BKN060
     FM231800 21011KT P6SM -SHRA BKN022 OVC050
     FM232100 21011KT P6SM -SHRA SCT030 BKN050 BKN090 PROB30
      2321/2324 5SM TSRA OVC025CB=

USA.gov is the U.S. government's official web portal to all federal, state and local government web resources and services.